Lansing, New York
Current Conditions -  °F | °C
As of 9:56 PM on Wednesday 22 Oct 2014 (Local Time) from KITH Reporting Station
Overcast Overcast  
Wind Chill: 41°   Ceiling: 1200
Heat Index: 46°   Visibility: 10mi
Dew Point: 42°   Wind: 10mph
Humidity: 86%   Direction: 350°N
Pressure: 30.1"   Gusts: NA
Location:  42.48°N, 76.48°W
Report Text: KITH 230156Z 35009KT 10SM OVC012 08/06 A3010 RMK AO2 T00770055 RAB10E24 P0000 SLP197
Loading
Personal Weather Stations






























Interactive Weather Map New forecast layout! Learn more

10-Day Weather Forecast

Advertisements
Track Severe Weather on mobile